sensor_id;sensor_type;location;lat;lon;timestamp;temperature;humidity
67529;DHT22;54366;51.980;5.856;2022-12-07T00:01:23;6.10;84.90
67529;DHT22;54366;51.980;5.856;2022-12-07T00:03:54;6.00;84.90
67529;DHT22;54366;51.980;5.856;2022-12-07T00:06:23;6.10;85.30
67529;DHT22;54366;51.980;5.856;2022-12-07T00:08:49;6.00;84.60
67529;DHT22;54366;51.980;5.856;2022-12-07T00:11:18;6.00;84.60
67529;DHT22;54366;51.980;5.856;2022-12-07T00:13:45;5.90;84.60
67529;DHT22;54366;51.980;5.856;2022-12-07T00:16:15;5.90;84.50
67529;DHT22;54366;51.980;5.856;2022-12-07T00:18:42;5.90;84.60
67529;DHT22;54366;51.980;5.856;2022-12-07T00:21:14;5.90;84.70
67529;DHT22;54366;51.980;5.856;2022-12-07T00:23:42;5.80;84.70
67529;DHT22;54366;51.980;5.856;2022-12-07T00:26:30;5.80;84.70
67529;DHT22;54366;51.980;5.856;2022-12-07T00:29:03;5.70;84.70
67529;DHT22;54366;51.980;5.856;2022-12-07T00:31:35;5.70;84.70
67529;DHT22;54366;51.980;5.856;2022-12-07T00:34:05;5.70;84.90
67529;DHT22;54366;51.980;5.856;2022-12-07T00:36:32;5.70;84.90
67529;DHT22;54366;51.980;5.856;2022-12-07T00:39:00;5.70;85.10
67529;DHT22;54366;51.980;5.856;2022-12-07T00:41:29;5.70;85.10
67529;DHT22;54366;51.980;5.856;2022-12-07T00:43:55;5.70;85.00
67529;DHT22;54366;51.980;5.856;2022-12-07T00:46:22;5.60;84.90
67529;DHT22;54366;51.980;5.856;2022-12-07T00:48:50;5.60;84.90
67529;DHT22;54366;51.980;5.856;2022-12-07T00:51:19;5.70;84.90
67529;DHT22;54366;51.980;5.856;2022-12-07T00:53:46;5.60;84.70
67529;DHT22;54366;51.980;5.856;2022-12-07T00:56:26;5.60;84.80
67529;DHT22;54366;51.980;5.856;2022-12-07T00:58:55;5.70;84.80
67529;DHT22;54366;51.980;5.856;2022-12-07T01:01:22;5.60;84.80
67529;DHT22;54366;51.980;5.856;2022-12-07T01:03:48;5.60;84.70
67529;DHT22;54366;51.980;5.856;2022-12-07T01:06:16;5.60;84.70
67529;DHT22;54366;51.980;5.856;2022-12-07T01:08:43;5.60;84.80
67529;DHT22;54366;51.980;5.856;2022-12-07T01:11:11;5.50;84.70
67529;DHT22;54366;51.980;5.856;2022-12-07T01:13:38;5.60;84.70
67529;DHT22;54366;51.980;5.856;2022-12-07T01:16:05;5.50;84.60
67529;DHT22;54366;51.980;5.856;2022-12-07T01:18:34;5.50;84.60
67529;DHT22;54366;51.980;5.856;2022-12-07T01:21:05;5.50;84.60
67529;DHT22;54366;51.980;5.856;2022-12-07T01:23:33;5.50;84.50
67529;DHT22;54366;51.980;5.856;2022-12-07T01:26:03;5.50;84.70
67529;DHT22;54366;51.980;5.856;2022-12-07T01:28:30;5.50;84.70
67529;DHT22;54366;51.980;5.856;2022-12-07T01:31:03;5.50;84.80
67529;DHT22;54366;51.980;5.856;2022-12-07T01:33:33;5.40;84.60
67529;DHT22;54366;51.980;5.856;2022-12-07T01:36:29;5.40;84.50
67529;DHT22;54366;51.980;5.856;2022-12-07T01:38:56;5.40;84.50
67529;DHT22;54366;51.980;5.856;2022-12-07T01:41:24;5.40;84.60
67529;DHT22;54366;51.980;5.856;2022-12-07T01:46:42;5.40;84.50
67529;DHT22;54366;51.980;5.856;2022-12-07T01:49:12;5.30;84.30
67529;DHT22;54366;51.980;5.856;2022-12-07T01:51:41;5.30;84.10
67529;DHT22;54366;51.980;5.856;2022-12-07T01:54:10;5.20;84.10
67529;DHT22;54366;51.980;5.856;2022-12-07T01:56:37;5.30;84.10
67529;DHT22;54366;51.980;5.856;2022-12-07T01:59:05;5.20;84.30
67529;DHT22;54366;51.980;5.856;2022-12-07T02:01:31;5.30;84.40
67529;DHT22;54366;51.980;5.856;2022-12-07T02:03:58;5.20;84.40
67529;DHT22;54366;51.980;5.856;2022-12-07T02:06:25;5.30;84.40
67529;DHT22;54366;51.980;5.856;2022-12-07T02:08:52;5.20;84.50
67529;DHT22;54366;51.980;5.856;2022-12-07T02:11:20;5.20;84.70
67529;DHT22;54366;51.980;5.856;2022-12-07T02:13:47;5.20;84.60
67529;DHT22;54366;51.980;5.856;2022-12-07T02:17:58;5.20;84.60
67529;DHT22;54366;51.980;5.856;2022-12-07T02:19:58;5.20;84.40
67529;DHT22;54366;51.980;5.856;2022-12-07T02:26:25;5.10;84.40
67529;DHT22;54366;51.980;5.856;2022-12-07T02:28:35;5.10;84.40
67529;DHT22;54366;51.980;5.856;2022-12-07T02:31:13;5.10;84.30
67529;DHT22;54366;51.980;5.856;2022-12-07T02:33:46;5.10;84.30
67529;DHT22;54366;51.980;5.856;2022-12-07T02:36:21;5.00;84.40
67529;DHT22;54366;51.980;5.856;2022-12-07T02:39:06;5.00;84.30
67529;DHT22;54366;51.980;5.856;2022-12-07T02:41:38;5.00;85.00
67529;DHT22;54366;51.980;5.856;2022-12-07T02:44:09;5.00;84.40
67529;DHT22;54366;51.980;5.856;2022-12-07T02:46:42;5.00;84.50
67529;DHT22;54366;51.980;5.856;2022-12-07T02:49:09;5.00;84.30
67529;DHT22;54366;51.980;5.856;2022-12-07T02:51:42;4.90;84.20
67529;DHT22;54366;51.980;5.856;2022-12-07T02:54:12;4.90;84.80
67529;DHT22;54366;51.980;5.856;2022-12-07T02:57:06;4.90;84.30
67529;DHT22;54366;51.980;5.856;2022-12-07T03:00:07;4.90;84.10
67529;DHT22;54366;51.980;5.856;2022-12-07T03:03:09;4.80;84.30
67529;DHT22;54366;51.980;5.856;2022-12-07T03:06:16;4.90;84.40
67529;DHT22;54366;51.980;5.856;2022-12-07T03:09:13;4.80;84.50
67529;DHT22;54366;51.980;5.856;2022-12-07T03:11:50;4.80;84.50
67529;DHT22;54366;51.980;5.856;2022-12-07T03:14:28;4.80;84.40
67529;DHT22;54366;51.980;5.856;2022-12-07T03:17:10;4.80;84.40
67529;DHT22;54366;51.980;5.856;2022-12-07T03:19:39;4.80;84.40
67529;DHT22;54366;51.980;5.856;2022-12-07T03:22:09;4.80;84.50
67529;DHT22;54366;51.980;5.856;2022-12-07T03:24:43;4.80;84.50
67529;DHT22;54366;51.980;5.856;2022-12-07T03:27:15;4.80;84.60
67529;DHT22;54366;51.980;5.856;2022-12-07T03:33:04;4.90;84.60
67529;DHT22;54366;51.980;5.856;2022-12-07T03:35:39;4.90;84.70
67529;DHT22;54366;51.980;5.856;2022-12-07T03:38:30;5.00;84.70
67529;DHT22;54366;51.980;5.856;2022-12-07T03:41:08;4.90;84.50
67529;DHT22;54366;51.980;5.856;2022-12-07T03:43:37;5.00;84.80
67529;DHT22;54366;51.980;5.856;2022-12-07T03:49:41;5.00;85.10
67529;DHT22;54366;51.980;5.856;2022-12-07T03:52:18;5.00;85.00
67529;DHT22;54366;51.980;5.856;2022-12-07T03:55:29;5.00;84.90
67529;DHT22;54366;51.980;5.856;2022-12-07T03:58:03;5.00;84.90
67529;DHT22;54366;51.980;5.856;2022-12-07T04:00:30;5.00;84.80
67529;DHT22;54366;51.980;5.856;2022-12-07T04:02:57;5.00;84.80
67529;DHT22;54366;51.980;5.856;2022-12-07T04:05:24;5.00;85.00
67529;DHT22;54366;51.980;5.856;2022-12-07T04:07:50;5.00;85.00
67529;DHT22;54366;51.980;5.856;2022-12-07T04:10:17;5.00;85.00
67529;DHT22;54366;51.980;5.856;2022-12-07T04:12:43;4.90;85.00
67529;DHT22;54366;51.980;5.856;2022-12-07T04:15:10;5.00;85.50
67529;DHT22;54366;51.980;5.856;2022-12-07T04:17:36;5.00;85.00
67529;DHT22;54366;51.980;5.856;2022-12-07T04:20:03;5.00;84.90
67529;DHT22;54366;51.980;5.856;2022-12-07T04:22:30;5.00;85.00
67529;DHT22;54366;51.980;5.856;2022-12-07T04:24:56;5.00;84.90
67529;DHT22;54366;51.980;5.856;2022-12-07T04:27:23;5.00;85.00
67529;DHT22;54366;51.980;5.856;2022-12-07T04:29:49;5.00;85.00
67529;DHT22;54366;51.980;5.856;2022-12-07T04:32:15;5.00;85.10
67529;DHT22;54366;51.980;5.856;2022-12-07T04:34:41;5.00;85.00
67529;DHT22;54366;51.980;5.856;2022-12-07T04:37:08;5.00;84.90
67529;DHT22;54366;51.980;5.856;2022-12-07T04:39:34;5.00;84.90
67529;DHT22;54366;51.980;5.856;2022-12-07T04:42:01;5.00;84.80
67529;DHT22;54366;51.980;5.856;2022-12-07T04:44:28;5.00;84.80
67529;DHT22;54366;51.980;5.856;2022-12-07T04:46:55;5.00;84.80
67529;DHT22;54366;51.980;5.856;2022-12-07T04:49:23;5.10;84.90
67529;DHT22;54366;51.980;5.856;2022-12-07T04:51:50;5.00;84.90
67529;DHT22;54366;51.980;5.856;2022-12-07T04:54:17;5.10;85.10
67529;DHT22;54366;51.980;5.856;2022-12-07T04:56:43;5.10;85.20
67529;DHT22;54366;51.980;5.856;2022-12-07T04:59:11;5.10;85.30
67529;DHT22;54366;51.980;5.856;2022-12-07T05:01:38;5.10;85.90
67529;DHT22;54366;51.980;5.856;2022-12-07T05:04:04;5.10;85.20
67529;DHT22;54366;51.980;5.856;2022-12-07T05:06:31;5.10;85.20
67529;DHT22;54366;51.980;5.856;2022-12-07T05:08:57;5.10;85.20
67529;DHT22;54366;51.980;5.856;2022-12-07T05:11:24;5.10;85.10
67529;DHT22;54366;51.980;5.856;2022-12-07T05:14:15;5.10;85.10
67529;DHT22;54366;51.980;5.856;2022-12-07T05:16:42;5.00;85.00
67529;DHT22;54366;51.980;5.856;2022-12-07T05:19:09;5.00;84.90
67529;DHT22;54366;51.980;5.856;2022-12-07T05:21:36;5.10;85.50
67529;DHT22;54366;51.980;5.856;2022-12-07T05:24:04;4.90;84.80
67529;DHT22;54366;51.980;5.856;2022-12-07T05:26:31;4.90;84.80
67529;DHT22;54366;51.980;5.856;2022-12-07T05:28:57;4.90;84.80
67529;DHT22;54366;51.980;5.856;2022-12-07T05:31:24;4.90;84.70
67529;DHT22;54366;51.980;5.856;2022-12-07T05:33:51;4.90;84.80
67529;DHT22;54366;51.980;5.856;2022-12-07T05:36:18;4.90;84.80
67529;DHT22;54366;51.980;5.856;2022-12-07T05:38:44;4.90;84.80
67529;DHT22;54366;51.980;5.856;2022-12-07T05:41:14;4.90;84.90
67529;DHT22;54366;51.980;5.856;2022-12-07T05:43:59;4.90;85.00
67529;DHT22;54366;51.980;5.856;2022-12-07T05:46:25;4.90;85.00
67529;DHT22;54366;51.980;5.856;2022-12-07T05:48:52;4.90;85.10
67529;DHT22;54366;51.980;5.856;2022-12-07T05:51:18;4.90;85.10
67529;DHT22;54366;51.980;5.856;2022-12-07T05:53:45;4.90;85.10
67529;DHT22;54366;51.980;5.856;2022-12-07T05:56:11;4.90;85.10
67529;DHT22;54366;51.980;5.856;2022-12-07T05:58:38;4.90;85.00
67529;DHT22;54366;51.980;5.856;2022-12-07T06:01:23;4.90;84.80
67529;DHT22;54366;51.980;5.856;2022-12-07T06:03:49;4.80;84.40
67529;DHT22;54366;51.980;5.856;2022-12-07T06:06:16;4.80;84.30
67529;DHT22;54366;51.980;5.856;2022-12-07T06:08:42;4.70;84.30
67529;DHT22;54366;51.980;5.856;2022-12-07T06:11:08;4.70;84.30
67529;DHT22;54366;51.980;5.856;2022-12-07T06:13:53;4.60;84.30
67529;DHT22;54366;51.980;5.856;2022-12-07T06:16:20;4.60;84.00
67529;DHT22;54366;51.980;5.856;2022-12-07T06:18:46;4.60;84.00
67529;DHT22;54366;51.980;5.856;2022-12-07T06:21:13;4.50;83.90
67529;DHT22;54366;51.980;5.856;2022-12-07T06:23:40;4.50;84.10
67529;DHT22;54366;51.980;5.856;2022-12-07T06:26:06;4.50;83.90
67529;DHT22;54366;51.980;5.856;2022-12-07T06:28:32;4.40;83.70
67529;DHT22;54366;51.980;5.856;2022-12-07T06:31:02;4.40;83.80
67529;DHT22;54366;51.980;5.856;2022-12-07T06:33:29;4.40;84.00
67529;DHT22;54366;51.980;5.856;2022-12-07T06:35:55;4.40;83.90
67529;DHT22;54366;51.980;5.856;2022-12-07T06:38:22;4.40;83.90
67529;DHT22;54366;51.980;5.856;2022-12-07T06:40:48;4.30;84.00
67529;DHT22;54366;51.980;5.856;2022-12-07T06:43:14;4.40;84.20
67529;DHT22;54366;51.980;5.856;2022-12-07T06:45:41;4.40;84.30
67529;DHT22;54366;51.980;5.856;2022-12-07T06:48:07;4.40;84.30
67529;DHT22;54366;51.980;5.856;2022-12-07T06:50:33;4.40;84.30
67529;DHT22;54366;51.980;5.856;2022-12-07T06:53:00;4.40;84.40
67529;DHT22;54366;51.980;5.856;2022-12-07T06:55:26;4.40;84.50
67529;DHT22;54366;51.980;5.856;2022-12-07T06:57:52;4.40;84.50
67529;DHT22;54366;51.980;5.856;2022-12-07T07:00:19;4.40;84.60
67529;DHT22;54366;51.980;5.856;2022-12-07T07:02:45;4.40;84.60
67529;DHT22;54366;51.980;5.856;2022-12-07T07:05:12;4.40;84.60
67529;DHT22;54366;51.980;5.856;2022-12-07T07:07:38;4.50;84.70
67529;DHT22;54366;51.980;5.856;2022-12-07T07:10:05;4.50;84.80
67529;DHT22;54366;51.980;5.856;2022-12-07T07:12:31;4.50;84.80
67529;DHT22;54366;51.980;5.856;2022-12-07T07:14:58;4.50;84.70
67529;DHT22;54366;51.980;5.856;2022-12-07T07:17:24;4.60;84.70
67529;DHT22;54366;51.980;5.856;2022-12-07T07:19:50;4.60;84.70
67529;DHT22;54366;51.980;5.856;2022-12-07T07:22:16;4.50;84.70
67529;DHT22;54366;51.980;5.856;2022-12-07T07:24:43;4.50;84.70
67529;DHT22;54366;51.980;5.856;2022-12-07T07:27:09;4.50;84.60
67529;DHT22;54366;51.980;5.856;2022-12-07T07:29:36;4.60;84.60
67529;DHT22;54366;51.980;5.856;2022-12-07T07:32:02;4.50;84.60
67529;DHT22;54366;51.980;5.856;2022-12-07T07:34:29;4.50;84.50
67529;DHT22;54366;51.980;5.856;2022-12-07T07:36:55;4.40;84.50
67529;DHT22;54366;51.980;5.856;2022-12-07T07:39:21;4.40;84.60
67529;DHT22;54366;51.980;5.856;2022-12-07T07:41:48;4.40;84.70
67529;DHT22;54366;51.980;5.856;2022-12-07T07:44:23;4.40;84.70
67529;DHT22;54366;51.980;5.856;2022-12-07T07:46:50;4.40;84.60
67529;DHT22;54366;51.980;5.856;2022-12-07T07:49:16;4.40;84.60
67529;DHT22;54366;51.980;5.856;2022-12-07T07:51:42;4.40;84.70
67529;DHT22;54366;51.980;5.856;2022-12-07T07:54:08;4.40;84.70
67529;DHT22;54366;51.980;5.856;2022-12-07T07:56:35;4.40;84.70
67529;DHT22;54366;51.980;5.856;2022-12-07T07:59:01;4.40;84.70
67529;DHT22;54366;51.980;5.856;2022-12-07T08:01:27;4.40;84.60
67529;DHT22;54366;51.980;5.856;2022-12-07T08:03:53;4.50;84.70
67529;DHT22;54366;51.980;5.856;2022-12-07T08:06:20;4.50;84.60
67529;DHT22;54366;51.980;5.856;2022-12-07T08:08:46;4.50;84.60
67529;DHT22;54366;51.980;5.856;2022-12-07T08:11:12;4.50;84.60
67529;DHT22;54366;51.980;5.856;2022-12-07T08:13:39;4.50;84.60
67529;DHT22;54366;51.980;5.856;2022-12-07T08:16:09;4.40;84.60
67529;DHT22;54366;51.980;5.856;2022-12-07T08:18:38;4.50;84.70
67529;DHT22;54366;51.980;5.856;2022-12-07T08:21:05;4.50;84.90
67529;DHT22;54366;51.980;5.856;2022-12-07T08:23:32;4.50;84.90
67529;DHT22;54366;51.980;5.856;2022-12-07T08:26:01;4.60;85.00
67529;DHT22;54366;51.980;5.856;2022-12-07T08:28:29;4.70;85.60
67529;DHT22;54366;51.980;5.856;2022-12-07T08:31:04;4.70;85.00
67529;DHT22;54366;51.980;5.856;2022-12-07T08:33:31;4.70;84.90
67529;DHT22;54366;51.980;5.856;2022-12-07T08:36:05;4.80;84.90
67529;DHT22;54366;51.980;5.856;2022-12-07T08:38:37;4.80;84.70
67529;DHT22;54366;51.980;5.856;2022-12-07T08:41:04;4.90;84.70
67529;DHT22;54366;51.980;5.856;2022-12-07T08:43:30;4.90;84.50
67529;DHT22;54366;51.980;5.856;2022-12-07T08:46:23;5.00;84.30
67529;DHT22;54366;51.980;5.856;2022-12-07T08:48:57;5.00;84.30
67529;DHT22;54366;51.980;5.856;2022-12-07T08:51:28;5.10;84.20
67529;DHT22;54366;51.980;5.856;2022-12-07T08:53:55;5.10;84.10
67529;DHT22;54366;51.980;5.856;2022-12-07T08:56:22;5.10;84.10
67529;DHT22;54366;51.980;5.856;2022-12-07T08:58:48;5.10;84.10
67529;DHT22;54366;51.980;5.856;2022-12-07T09:01:15;5.10;84.10
67529;DHT22;54366;51.980;5.856;2022-12-07T09:03:41;5.20;84.20
67529;DHT22;54366;51.980;5.856;2022-12-07T09:06:07;5.20;84.30
67529;DHT22;54366;51.980;5.856;2022-12-07T09:08:44;5.30;84.30
67529;DHT22;54366;51.980;5.856;2022-12-07T09:11:12;5.30;84.50
67529;DHT22;54366;51.980;5.856;2022-12-07T09:13:38;5.20;84.60
67529;DHT22;54366;51.980;5.856;2022-12-07T09:16:05;5.30;84.70
67529;DHT22;54366;51.980;5.856;2022-12-07T09:18:31;5.30;84.70
67529;DHT22;54366;51.980;5.856;2022-12-07T09:20:57;5.40;84.70
67529;DHT22;54366;51.980;5.856;2022-12-07T09:23:24;5.40;84.80
67529;DHT22;54366;51.980;5.856;2022-12-07T09:25:50;5.50;84.70
67529;DHT22;54366;51.980;5.856;2022-12-07T09:28:16;5.50;85.30
67529;DHT22;54366;51.980;5.856;2022-12-07T09:30:49;5.60;84.60
67529;DHT22;54366;51.980;5.856;2022-12-07T09:33:15;5.60;84.60
67529;DHT22;54366;51.980;5.856;2022-12-07T09:35:45;5.70;84.60
67529;DHT22;54366;51.980;5.856;2022-12-07T09:38:12;5.70;84.70
67529;DHT22;54366;51.980;5.856;2022-12-07T09:40:39;5.70;84.70
67529;DHT22;54366;51.980;5.856;2022-12-07T09:43:11;5.80;84.40
67529;DHT22;54366;51.980;5.856;2022-12-07T09:45:38;5.80;84.30
67529;DHT22;54366;51.980;5.856;2022-12-07T09:48:08;5.90;84.20
67529;DHT22;54366;51.980;5.856;2022-12-07T09:50:40;5.90;84.10
67529;DHT22;54366;51.980;5.856;2022-12-07T09:53:14;6.00;84.10
67529;DHT22;54366;51.980;5.856;2022-12-07T09:55:41;6.00;84.00
67529;DHT22;54366;51.980;5.856;2022-12-07T09:58:26;6.10;84.10
67529;DHT22;54366;51.980;5.856;2022-12-07T10:01:14;6.10;84.00
67529;DHT22;54366;51.980;5.856;2022-12-07T10:06:41;6.10;84.00
67529;DHT22;54366;51.980;5.856;2022-12-07T10:09:15;6.10;84.10
67529;DHT22;54366;51.980;5.856;2022-12-07T10:12:07;6.10;84.00
67529;DHT22;54366;51.980;5.856;2022-12-07T10:14:38;6.10;84.20
67529;DHT22;54366;51.980;5.856;2022-12-07T10:17:47;6.10;84.40
67529;DHT22;54366;51.980;5.856;2022-12-07T10:20:26;6.10;84.40
67529;DHT22;54366;51.980;5.856;2022-12-07T10:23:04;6.20;84.40
67529;DHT22;54366;51.980;5.856;2022-12-07T10:25:36;6.20;84.50
67529;DHT22;54366;51.980;5.856;2022-12-07T10:28:17;6.20;84.50
67529;DHT22;54366;51.980;5.856;2022-12-07T10:30:56;6.30;84.50
67529;DHT22;54366;51.980;5.856;2022-12-07T10:33:44;6.30;84.10
67529;DHT22;54366;51.980;5.856;2022-12-07T10:36:20;6.30;83.40
67529;DHT22;54366;51.980;5.856;2022-12-07T10:41:56;6.40;83.50
67529;DHT22;54366;51.980;5.856;2022-12-07T10:44:25;6.40;83.40
67529;DHT22;54366;51.980;5.856;2022-12-07T10:47:29;6.50;83.50
67529;DHT22;54366;51.980;5.856;2022-12-07T10:50:17;6.60;83.40
67529;DHT22;54366;51.980;5.856;2022-12-07T10:53:38;6.70;83.10
67529;DHT22;54366;51.980;5.856;2022-12-07T10:56:36;6.80;82.60
67529;DHT22;54366;51.980;5.856;2022-12-07T11:02:53;7.00;81.70
67529;DHT22;54366;51.980;5.856;2022-12-07T11:05:39;7.00;81.00
67529;DHT22;54366;51.980;5.856;2022-12-07T11:11:36;7.00;81.20
67529;DHT22;54366;51.980;5.856;2022-12-07T11:14:25;7.00;80.90
67529;DHT22;54366;51.980;5.856;2022-12-07T11:18:09;7.00;81.10
67529;DHT22;54366;51.980;5.856;2022-12-07T11:20:43;7.10;81.40
67529;DHT22;54366;51.980;5.856;2022-12-07T11:26:34;7.20;81.00
67529;DHT22;54366;51.980;5.856;2022-12-07T11:30:09;7.20;81.20
67529;DHT22;54366;51.980;5.856;2022-12-07T11:35:21;7.40;81.50
67529;DHT22;54366;51.980;5.856;2022-12-07T11:37:51;7.50;81.60
67529;DHT22;54366;51.980;5.856;2022-12-07T11:40:26;7.50;81.20
67529;DHT22;54366;51.980;5.856;2022-12-07T11:43:26;7.60;81.10
67529;DHT22;54366;51.980;5.856;2022-12-07T11:46:03;7.70;81.10
67529;DHT22;54366;51.980;5.856;2022-12-07T11:48:40;7.70;81.00
67529;DHT22;54366;51.980;5.856;2022-12-07T11:51:10;7.70;80.90
67529;DHT22;54366;51.980;5.856;2022-12-07T11:53:48;7.70;80.20
67529;DHT22;54366;51.980;5.856;2022-12-07T11:56:17;7.80;80.10
67529;DHT22;54366;51.980;5.856;2022-12-07T11:58:53;7.90;80.40
67529;DHT22;54366;51.980;5.856;2022-12-07T12:01:55;8.00;80.50
67529;DHT22;54366;51.980;5.856;2022-12-07T12:07:16;8.10;80.10
67529;DHT22;54366;51.980;5.856;2022-12-07T12:09:53;8.10;80.20
67529;DHT22;54366;51.980;5.856;2022-12-07T12:12:47;8.10;79.60
67529;DHT22;54366;51.980;5.856;2022-12-07T12:19:19;7.90;78.30
67529;DHT22;54366;51.980;5.856;2022-12-07T12:21:26;7.80;78.90
67529;DHT22;54366;51.980;5.856;2022-12-07T12:24:00;7.80;79.30
67529;DHT22;54366;51.980;5.856;2022-12-07T12:26:33;7.70;79.00
67529;DHT22;54366;51.980;5.856;2022-12-07T12:29:06;7.80;79.50
67529;DHT22;54366;51.980;5.856;2022-12-07T12:31:37;7.80;79.70
67529;DHT22;54366;51.980;5.856;2022-12-07T12:34:37;7.90;80.20
67529;DHT22;54366;51.980;5.856;2022-12-07T12:40:38;8.00;79.50
67529;DHT22;54366;51.980;5.856;2022-12-07T12:47:03;8.10;78.90
67529;DHT22;54366;51.980;5.856;2022-12-07T12:49:39;8.20;78.30
67529;DHT22;54366;51.980;5.856;2022-12-07T12:55:19;8.30;78.40
67529;DHT22;54366;51.980;5.856;2022-12-07T12:58:21;8.30;78.80
67529;DHT22;54366;51.980;5.856;2022-12-07T13:00:34;8.30;78.30
67529;DHT22;54366;51.980;5.856;2022-12-07T13:03:00;8.40;78.80
67529;DHT22;54366;51.980;5.856;2022-12-07T13:05:28;8.40;78.20
67529;DHT22;54366;51.980;5.856;2022-12-07T13:08:16;8.40;78.40
67529;DHT22;54366;51.980;5.856;2022-12-07T13:10:45;8.40;78.20
67529;DHT22;54366;51.980;5.856;2022-12-07T13:13:33;8.40;78.00
67529;DHT22;54366;51.980;5.856;2022-12-07T13:16:37;8.40;78.30
67529;DHT22;54366;51.980;5.856;2022-12-07T13:22:40;8.50;78.50
67529;DHT22;54366;51.980;5.856;2022-12-07T13:25:19;8.50;78.70
67529;DHT22;54366;51.980;5.856;2022-12-07T13:28:07;8.50;78.90
67529;DHT22;54366;51.980;5.856;2022-12-07T13:31:12;8.50;79.10
67529;DHT22;54366;51.980;5.856;2022-12-07T13:33:30;8.50;78.20
67529;DHT22;54366;51.980;5.856;2022-12-07T13:35:57;8.50;78.50
67529;DHT22;54366;51.980;5.856;2022-12-07T13:38:29;8.50;77.90
67529;DHT22;54366;51.980;5.856;2022-12-07T13:43:29;8.50;78.10
67529;DHT22;54366;51.980;5.856;2022-12-07T13:45:59;8.50;77.10
67529;DHT22;54366;51.980;5.856;2022-12-07T13:48:45;8.50;76.50
67529;DHT22;54366;51.980;5.856;2022-12-07T13:51:27;8.50;76.90
67529;DHT22;54366;51.980;5.856;2022-12-07T13:53:57;8.50;76.70
67529;DHT22;54366;51.980;5.856;2022-12-07T13:56:33;8.50;76.90
67529;DHT22;54366;51.980;5.856;2022-12-07T13:58:59;8.60;77.20
67529;DHT22;54366;51.980;5.856;2022-12-07T14:01:26;8.60;76.80
67529;DHT22;54366;51.980;5.856;2022-12-07T14:03:52;8.60;77.20
67529;DHT22;54366;51.980;5.856;2022-12-07T14:06:26;8.60;77.50
67529;DHT22;54366;51.980;5.856;2022-12-07T14:09:21;8.60;77.30
67529;DHT22;54366;51.980;5.856;2022-12-07T14:11:50;8.50;77.30
67529;DHT22;54366;51.980;5.856;2022-12-07T14:14:20;8.50;78.00
67529;DHT22;54366;51.980;5.856;2022-12-07T14:17:15;8.50;77.60
67529;DHT22;54366;51.980;5.856;2022-12-07T14:19:54;8.50;76.90
67529;DHT22;54366;51.980;5.856;2022-12-07T14:22:28;8.30;75.10
67529;DHT22;54366;51.980;5.856;2022-12-07T14:25:21;8.10;75.10
67529;DHT22;54366;51.980;5.856;2022-12-07T14:27:54;8.00;75.40
67529;DHT22;54366;51.980;5.856;2022-12-07T14:30:24;7.90;75.70
67529;DHT22;54366;51.980;5.856;2022-12-07T14:32:59;7.80;75.90
67529;DHT22;54366;51.980;5.856;2022-12-07T14:35:27;7.70;75.90
67529;DHT22;54366;51.980;5.856;2022-12-07T14:37:53;7.60;76.50
67529;DHT22;54366;51.980;5.856;2022-12-07T14:40:25;7.60;76.80
67529;DHT22;54366;51.980;5.856;2022-12-07T14:43:02;7.60;77.00
67529;DHT22;54366;51.980;5.856;2022-12-07T14:45:29;7.60;77.10
67529;DHT22;54366;51.980;5.856;2022-12-07T14:47:55;7.60;77.10
67529;DHT22;54366;51.980;5.856;2022-12-07T14:50:22;7.70;77.30
67529;DHT22;54366;51.980;5.856;2022-12-07T14:52:54;7.70;77.30
67529;DHT22;54366;51.980;5.856;2022-12-07T14:55:29;7.70;77.00
67529;DHT22;54366;51.980;5.856;2022-12-07T14:57:56;7.70;77.00
67529;DHT22;54366;51.980;5.856;2022-12-07T15:00:25;7.70;76.90
67529;DHT22;54366;51.980;5.856;2022-12-07T15:02:52;7.70;76.90
67529;DHT22;54366;51.980;5.856;2022-12-07T15:05:19;7.70;76.90
67529;DHT22;54366;51.980;5.856;2022-12-07T15:10:19;7.70;77.00
67529;DHT22;54366;51.980;5.856;2022-12-07T15:12:46;7.70;77.00
67529;DHT22;54366;51.980;5.856;2022-12-07T15:15:12;7.70;76.90
67529;DHT22;54366;51.980;5.856;2022-12-07T15:17:39;7.70;77.00
67529;DHT22;54366;51.980;5.856;2022-12-07T15:20:10;7.70;77.00
67529;DHT22;54366;51.980;5.856;2022-12-07T15:22:37;7.70;77.00
67529;DHT22;54366;51.980;5.856;2022-12-07T15:25:04;7.70;77.00
67529;DHT22;54366;51.980;5.856;2022-12-07T15:27:32;7.70;77.00
67529;DHT22;54366;51.980;5.856;2022-12-07T15:29:58;7.70;77.00
67529;DHT22;54366;51.980;5.856;2022-12-07T15:32:24;7.60;77.00
67529;DHT22;54366;51.980;5.856;2022-12-07T15:34:51;7.60;77.30
67529;DHT22;54366;51.980;5.856;2022-12-07T15:37:17;7.60;77.40
67529;DHT22;54366;51.980;5.856;2022-12-07T15:39:43;7.60;77.50
67529;DHT22;54366;51.980;5.856;2022-12-07T15:42:09;7.50;77.40
67529;DHT22;54366;51.980;5.856;2022-12-07T15:44:36;7.50;77.50
67529;DHT22;54366;51.980;5.856;2022-12-07T15:47:20;7.50;77.60
67529;DHT22;54366;51.980;5.856;2022-12-07T15:49:46;7.50;77.60
67529;DHT22;54366;51.980;5.856;2022-12-07T15:52:13;7.50;77.50
67529;DHT22;54366;51.980;5.856;2022-12-07T15:54:39;7.40;77.60
67529;DHT22;54366;51.980;5.856;2022-12-07T15:57:05;7.40;77.80
67529;DHT22;54366;51.980;5.856;2022-12-07T15:59:32;7.40;77.80
67529;DHT22;54366;51.980;5.856;2022-12-07T16:01:58;7.40;77.90
67529;DHT22;54366;51.980;5.856;2022-12-07T16:04:27;7.40;78.10
67529;DHT22;54366;51.980;5.856;2022-12-07T16:06:54;7.30;78.10
67529;DHT22;54366;51.980;5.856;2022-12-07T16:09:20;7.40;78.20
67529;DHT22;54366;51.980;5.856;2022-12-07T16:11:47;7.40;78.20
67529;DHT22;54366;51.980;5.856;2022-12-07T16:14:13;7.30;78.00
67529;DHT22;54366;51.980;5.856;2022-12-07T16:16:39;7.40;78.20
67529;DHT22;54366;51.980;5.856;2022-12-07T16:19:06;7.40;78.20
67529;DHT22;54366;51.980;5.856;2022-12-07T16:21:33;7.30;78.20
67529;DHT22;54366;51.980;5.856;2022-12-07T16:24:00;7.30;78.30
67529;DHT22;54366;51.980;5.856;2022-12-07T16:26:27;7.30;78.30
67529;DHT22;54366;51.980;5.856;2022-12-07T16:28:53;7.30;78.30
67529;DHT22;54366;51.980;5.856;2022-12-07T16:31:23;7.30;78.30
67529;DHT22;54366;51.980;5.856;2022-12-07T16:33:53;7.30;78.30
67529;DHT22;54366;51.980;5.856;2022-12-07T16:36:20;7.20;78.10
67529;DHT22;54366;51.980;5.856;2022-12-07T16:38:48;7.20;78.30
67529;DHT22;54366;51.980;5.856;2022-12-07T16:41:14;7.20;78.30
67529;DHT22;54366;51.980;5.856;2022-12-07T16:43:40;7.20;78.10
67529;DHT22;54366;51.980;5.856;2022-12-07T16:46:07;7.20;78.10
67529;DHT22;54366;51.980;5.856;2022-12-07T16:48:38;7.10;78.00
67529;DHT22;54366;51.980;5.856;2022-12-07T16:51:06;7.10;78.00
67529;DHT22;54366;51.980;5.856;2022-12-07T16:53:35;7.00;77.90
67529;DHT22;54366;51.980;5.856;2022-12-07T16:56:02;7.00;78.00
67529;DHT22;54366;51.980;5.856;2022-12-07T16:58:29;7.00;78.10
67529;DHT22;54366;51.980;5.856;2022-12-07T17:00:55;7.00;78.10
67529;DHT22;54366;51.980;5.856;2022-12-07T17:03:21;7.00;78.10
67529;DHT22;54366;51.980;5.856;2022-12-07T17:05:47;6.90;77.90
67529;DHT22;54366;51.980;5.856;2022-12-07T17:08:14;6.90;78.00
67529;DHT22;54366;51.980;5.856;2022-12-07T17:10:43;6.90;78.10
67529;DHT22;54366;51.980;5.856;2022-12-07T17:13:10;6.80;78.00